createdAt,value
2019-02-27T00:00:54.603Z,4.00
2019-02-27T00:03:22.688Z,4.30
2019-02-27T00:05:50.855Z,3.87
2019-02-27T00:08:18.775Z,3.87
2019-02-27T00:10:46.947Z,4.30
2019-02-27T00:13:14.939Z,4.37
2019-02-27T00:15:42.910Z,4.13
2019-02-27T00:18:10.929Z,3.80
2019-02-27T00:20:38.956Z,3.27
2019-02-27T00:23:07.080Z,3.10
2019-02-27T00:25:36.211Z,2.90
2019-02-27T00:28:05.071Z,2.60
2019-02-27T00:30:33.106Z,2.80
2019-02-27T00:33:01.169Z,2.60
2019-02-27T00:35:29.109Z,2.33
2019-02-27T00:37:57.268Z,2.77
2019-02-27T00:40:25.338Z,2.50
2019-02-27T00:42:54.341Z,2.33
2019-02-27T00:45:23.917Z,2.53
2019-02-27T00:47:53.257Z,2.50
2019-02-27T00:50:21.738Z,2.50
2019-02-27T00:52:51.123Z,2.47
2019-02-27T00:55:19.735Z,2.80
2019-02-27T00:57:47.784Z,2.60
2019-02-27T01:00:16.406Z,2.37
2019-02-27T01:02:44.378Z,2.80
2019-02-27T01:05:12.747Z,2.70
2019-02-27T01:07:40.758Z,3.07
2019-02-27T01:10:11.962Z,2.50
2019-02-27T01:12:38.944Z,2.50
2019-02-27T01:15:07.932Z,3.03
2019-02-27T01:17:37.300Z,2.40
2019-02-27T01:20:05.372Z,2.50
2019-02-27T01:22:33.447Z,2.20
2019-02-27T01:25:02.421Z,2.73
2019-02-27T01:27:30.278Z,2.50
2019-02-27T01:29:58.294Z,2.47
2019-02-27T01:32:26.307Z,2.73
2019-02-27T01:34:54.135Z,2.50
2019-02-27T01:37:21.983Z,2.43
2019-02-27T01:39:49.869Z,2.77
2019-02-27T01:42:17.892Z,2.90
2019-02-27T01:44:46.678Z,2.87
2019-02-27T01:47:15.057Z,2.50
2019-02-27T01:49:43.445Z,2.70
2019-02-27T01:52:11.704Z,2.50
2019-02-27T01:54:39.845Z,3.13
2019-02-27T01:57:07.875Z,2.60
2019-02-27T01:59:36.036Z,2.83
2019-02-27T02:02:04.225Z,3.00
2019-02-27T02:04:32.289Z,3.10
2019-02-27T02:07:00.234Z,3.07
2019-02-27T02:09:34.764Z,3.00
2019-02-27T02:12:08.812Z,3.53
2019-02-27T02:15:08.498Z,3.07
2019-02-27T02:18:13.947Z,3.50
2019-02-27T02:21:11.660Z,2.93
2019-02-27T02:24:29.806Z,3.30
2019-02-27T02:27:11.658Z,2.90
2019-02-27T02:30:15.615Z,3.20
2019-02-27T02:33:11.389Z,3.10
2019-02-27T02:36:17.093Z,3.10
2019-02-27T02:39:19.126Z,2.90
2019-02-27T02:42:30.654Z,2.30
2019-02-27T02:45:32.767Z,3.10
2019-02-27T02:48:32.760Z,2.50
2019-02-27T02:52:04.628Z,2.70
2019-02-27T02:55:11.902Z,2.57
2019-02-27T02:57:47.312Z,2.30
2019-02-27T03:00:40.251Z,3.00
2019-02-27T03:03:37.276Z,2.70
2019-02-27T03:07:13.694Z,2.80
2019-02-27T03:10:24.528Z,2.70
2019-02-27T03:13:23.408Z,2.80
2019-02-27T03:16:15.049Z,3.43
2019-02-27T03:19:18.012Z,3.30
2019-02-27T03:22:03.741Z,5.27
2019-02-27T03:25:25.957Z,5.37
2019-02-27T03:28:21.201Z,4.13
2019-02-27T03:31:19.957Z,2.97
2019-02-27T03:34:53.802Z,7.93
2019-02-27T03:37:37.902Z,5.13
2019-02-27T03:40:34.274Z,5.53
2019-02-27T03:43:45.643Z,5.30
2019-02-27T03:46:43.956Z,5.37
2019-02-27T03:49:39.615Z,4.90
2019-02-27T03:52:55.455Z,4.40
2019-02-27T03:56:00.704Z,5.30
2019-02-27T03:59:42.040Z,6.37
2019-02-27T04:02:44.881Z,6.20
2019-02-27T04:06:09.538Z,6.07
2019-02-27T04:08:57.206Z,6.23
2019-02-27T04:11:25.293Z,6.03
2019-02-27T04:13:53.153Z,5.13
2019-02-27T04:16:21.223Z,5.77
2019-02-27T04:18:49.157Z,5.23
2019-02-27T04:21:17.042Z,5.70
2019-02-27T04:23:48.964Z,4.43
2019-02-27T04:26:14.804Z,5.13
2019-02-27T04:28:42.624Z,4.67
2019-02-27T04:31:10.557Z,4.47
2019-02-27T04:33:38.778Z,3.90
2019-02-27T04:36:06.718Z,4.70
2019-02-27T04:38:34.799Z,4.37
2019-02-27T04:41:02.671Z,5.00
2019-02-27T04:43:32.301Z,4.87
2019-02-27T04:46:00.885Z,4.20
2019-02-27T04:48:29.931Z,3.97
2019-02-27T04:50:58.660Z,5.97
2019-02-27T04:53:31.486Z,5.77
2019-02-27T04:55:56.855Z,5.00
2019-02-27T04:58:24.908Z,4.07
2019-02-27T05:00:53.071Z,4.50
2019-02-27T05:03:21.061Z,4.37
2019-02-27T05:05:49.011Z,4.23
2019-02-27T05:08:17.179Z,4.53
2019-02-27T05:10:45.374Z,4.30
2019-02-27T05:13:13.317Z,3.80
2019-02-27T05:15:41.398Z,4.27
2019-02-27T05:18:10.444Z,11.20
2019-02-27T05:20:38.461Z,9.20
2019-02-27T05:23:06.337Z,10.13
2019-02-27T05:25:34.284Z,10.40
2019-02-27T05:28:02.135Z,9.33
2019-02-27T05:30:31.023Z,7.20
2019-02-27T05:33:02.012Z,7.97
2019-02-27T05:35:28.829Z,7.70
2019-02-27T05:37:56.965Z,8.20
2019-02-27T05:40:25.981Z,6.70
2019-02-27T05:42:54.539Z,6.93
2019-02-27T05:45:22.747Z,7.07
2019-02-27T05:47:50.931Z,7.00
2019-02-27T05:50:18.903Z,6.87
2019-02-27T05:52:48.789Z,7.17
2019-02-27T05:55:16.871Z,7.00
2019-02-27T05:57:44.799Z,7.10
2019-02-27T06:00:15.153Z,7.17
2019-02-27T06:02:45.012Z,7.03
2019-02-27T06:05:13.138Z,7.63
2019-02-27T06:07:41.174Z,8.23
2019-02-27T06:10:11.698Z,8.20
2019-02-27T06:12:40.722Z,8.33
2019-02-27T06:15:11.720Z,7.40
2019-02-27T06:17:43.360Z,7.57
2019-02-27T06:20:09.752Z,7.50
2019-02-27T06:22:37.958Z,7.77
2019-02-27T06:25:07.588Z,8.20
2019-02-27T06:27:37.170Z,7.73
2019-02-27T06:30:06.780Z,8.70
2019-02-27T06:32:35.770Z,7.00
2019-02-27T06:35:04.075Z,8.00
2019-02-27T06:37:32.006Z,8.00
2019-02-27T06:40:00.008Z,7.13
2019-02-27T06:42:28.183Z,7.00
2019-02-27T06:44:56.360Z,6.70
2019-02-27T06:47:24.253Z,6.33
2019-02-27T06:49:52.561Z,6.40
2019-02-27T06:52:20.610Z,7.00
2019-02-27T06:54:51.939Z,7.47
2019-02-27T06:57:18.058Z,7.97
2019-02-27T06:59:45.950Z,7.57
2019-02-27T07:02:13.830Z,7.13
2019-02-27T07:04:41.773Z,7.87
2019-02-27T07:07:09.871Z,7.77
2019-02-27T07:09:38.017Z,7.87
2019-02-27T07:12:07.227Z,7.73
2019-02-27T07:14:36.496Z,9.27
2019-02-27T07:17:05.395Z,7.77
2019-02-27T07:19:33.370Z,7.90
2019-02-27T07:22:01.386Z,7.40
2019-02-27T07:24:30.557Z,6.23
2019-02-27T07:26:59.157Z,6.40
2019-02-27T07:29:28.058Z,6.93
2019-02-27T07:31:57.284Z,6.10
2019-02-27T07:34:28.022Z,5.87
2019-02-27T07:36:55.911Z,5.90
2019-02-27T07:39:23.981Z,5.80
2019-02-27T07:41:51.725Z,5.50
2019-02-27T07:44:19.614Z,5.10
2019-02-27T07:46:47.477Z,4.13
2019-02-27T07:49:15.593Z,4.30
2019-02-27T07:51:43.544Z,4.57
2019-02-27T07:54:11.590Z,4.27
2019-02-27T07:56:39.513Z,4.80
2019-02-27T07:59:07.461Z,4.17
2019-02-27T08:01:43.498Z,4.17
2019-02-27T08:04:05.606Z,4.53
2019-02-27T08:06:35.087Z,4.97
2019-02-27T08:09:04.644Z,4.53
2019-02-27T08:11:33.619Z,4.47
2019-02-27T08:14:04.460Z,5.27
2019-02-27T08:16:32.363Z,5.07
2019-02-27T08:19:00.227Z,5.10
2019-02-27T08:21:28.137Z,5.30
2019-02-27T08:23:56.199Z,5.60
2019-02-27T08:26:24.054Z,5.77
2019-02-27T08:28:51.991Z,5.43
2019-02-27T08:31:19.843Z,6.03
2019-02-27T08:33:47.918Z,5.73
2019-02-27T08:36:16.880Z,5.70
2019-02-27T08:38:45.030Z,6.30
2019-02-27T08:41:13.100Z,5.57
2019-02-27T08:43:41.893Z,5.77
2019-02-27T08:46:09.871Z,5.93
2019-02-27T08:48:37.892Z,6.83
2019-02-27T08:51:08.522Z,6.27
2019-02-27T08:53:35.662Z,5.83
2019-02-27T08:56:03.525Z,5.57
2019-02-27T08:58:33.016Z,6.37
2019-02-27T09:01:01.758Z,5.70
2019-02-27T09:03:29.944Z,6.83
2019-02-27T09:05:57.817Z,6.97
2019-02-27T09:08:25.644Z,6.77
2019-02-27T09:10:53.644Z,7.10
2019-02-27T09:13:21.671Z,7.00
2019-02-27T09:15:49.671Z,6.80
2019-02-27T09:18:17.865Z,7.23
2019-02-27T09:20:45.801Z,6.53
2019-02-27T09:23:14.083Z,7.10
2019-02-27T09:25:42.440Z,6.70
2019-02-27T09:28:10.425Z,6.97
2019-02-27T09:30:38.512Z,7.30
2019-02-27T09:33:06.377Z,6.80
2019-02-27T09:35:38.515Z,6.80
2019-02-27T09:38:04.301Z,6.93
2019-02-27T09:40:32.368Z,7.07
2019-02-27T09:43:00.398Z,6.97
2019-02-27T09:45:29.603Z,7.17
2019-02-27T09:47:59.967Z,6.83
2019-02-27T09:50:48.359Z,7.07
2019-02-27T09:53:16.914Z,6.73
2019-02-27T09:55:44.974Z,6.43
2019-02-27T09:58:13.151Z,7.83
2019-02-27T10:01:04.194Z,7.97
2019-02-27T10:03:32.914Z,6.87
2019-02-27T10:06:00.977Z,7.10
2019-02-27T10:08:28.960Z,7.93
2019-02-27T10:10:57.069Z,8.27
2019-02-27T10:13:25.387Z,7.90
2019-02-27T10:15:53.488Z,7.17
2019-02-27T10:18:22.183Z,7.53
2019-02-27T10:20:50.369Z,7.50
2019-02-27T10:23:18.445Z,6.80
2019-02-27T10:25:46.560Z,7.70
2019-02-27T10:28:14.476Z,7.80
2019-02-27T10:30:42.414Z,7.93
2019-02-27T10:33:11.829Z,7.87
2019-02-27T10:35:39.978Z,7.93
2019-02-27T10:38:09.758Z,7.87
2019-02-27T10:40:37.621Z,8.33
2019-02-27T10:43:05.747Z,7.77
2019-02-27T10:45:33.724Z,7.97
2019-02-27T10:48:01.788Z,7.97
2019-02-27T10:50:29.552Z,7.83
2019-02-27T10:52:57.586Z,7.67
2019-02-27T10:55:26.989Z,7.83
2019-02-27T10:57:55.265Z,8.47
2019-02-27T11:00:26.266Z,7.50
2019-02-27T11:02:54.324Z,8.77
2019-02-27T11:05:22.229Z,8.40
2019-02-27T11:07:52.715Z,8.90
2019-02-27T11:10:21.779Z,8.87
2019-02-27T11:12:50.093Z,8.70
2019-02-27T11:15:18.425Z,8.83
2019-02-27T11:17:46.630Z,7.93
2019-02-27T11:20:20.252Z,8.80
2019-02-27T11:22:44.639Z,9.20
2019-02-27T11:25:15.444Z,8.90
2019-02-27T11:27:43.865Z,8.20
2019-02-27T11:30:16.478Z,8.37
2019-02-27T11:32:44.464Z,8.30
2019-02-27T11:35:13.384Z,8.50
2019-02-27T11:37:41.470Z,7.80
2019-02-27T11:40:11.512Z,8.07
2019-02-27T11:42:39.429Z,7.97
2019-02-27T11:45:07.704Z,8.50
2019-02-27T11:47:35.627Z,8.60
2019-02-27T11:50:04.440Z,8.10
2019-02-27T11:52:32.247Z,8.00
2019-02-27T11:55:00.439Z,7.43
2019-02-27T11:57:30.502Z,7.50
2019-02-27T11:59:58.075Z,7.97
2019-02-27T12:02:29.091Z,7.30
2019-02-27T12:04:56.665Z,8.17
2019-02-27T12:07:24.717Z,8.00
2019-02-27T12:09:52.791Z,7.23
2019-02-27T12:12:23.398Z,7.70
2019-02-27T12:14:50.683Z,7.53
2019-02-27T12:17:18.612Z,7.77
2019-02-27T12:19:46.571Z,7.40
2019-02-27T12:22:14.547Z,7.73
2019-02-27T12:24:42.507Z,6.60
2019-02-27T12:27:25.698Z,8.07
2019-02-27T12:29:40.522Z,8.93
2019-02-27T12:32:08.773Z,8.00
2019-02-27T12:34:37.213Z,7.57
2019-02-27T12:37:05.779Z,8.20
2019-02-27T12:39:33.792Z,7.53
2019-02-27T12:42:04.160Z,6.90
2019-02-27T12:44:31.679Z,7.00
2019-02-27T12:46:59.694Z,6.80
2019-02-27T12:49:27.795Z,7.97
2019-02-27T12:51:55.702Z,7.70
2019-02-27T12:54:23.584Z,7.80
2019-02-27T12:56:51.591Z,7.60
2019-02-27T12:59:19.545Z,8.80
2019-02-27T13:01:50.931Z,9.27
2019-02-27T13:04:19.910Z,9.33
2019-02-27T13:06:47.258Z,9.80
2019-02-27T13:09:15.535Z,9.10
2019-02-27T13:11:44.976Z,9.03
2019-02-27T13:14:13.094Z,9.07
2019-02-27T13:16:40.976Z,8.83
2019-02-27T13:19:11.006Z,8.57
2019-02-27T13:21:39.234Z,7.63
2019-02-27T13:24:07.212Z,7.33
2019-02-27T13:26:35.458Z,8.37
2019-02-27T13:29:03.766Z,9.03
2019-02-27T13:31:31.753Z,7.47
2019-02-27T13:33:59.685Z,7.50
2019-02-27T13:36:27.947Z,7.53
2019-02-27T13:38:55.831Z,7.77
2019-02-27T13:41:25.527Z,8.43
2019-02-27T13:43:53.417Z,8.43
2019-02-27T13:46:22.745Z,7.60
2019-02-27T13:48:50.780Z,7.03
2019-02-27T13:51:18.851Z,7.33
2019-02-27T13:53:46.816Z,7.77
2019-02-27T13:56:16.196Z,7.93
2019-02-27T13:58:44.186Z,7.60
2019-02-27T14:01:12.215Z,7.70
2019-02-27T14:03:40.120Z,7.77
2019-02-27T14:06:09.418Z,7.90
2019-02-27T14:08:37.611Z,7.27
2019-02-27T14:11:05.860Z,7.47
2019-02-27T14:13:34.237Z,6.97
2019-02-27T14:16:02.299Z,7.23
2019-02-27T14:18:30.559Z,7.33
2019-02-27T14:20:58.985Z,6.97
2019-02-27T14:23:28.700Z,7.17
2019-02-27T14:25:56.779Z,7.13
2019-02-27T14:28:24.739Z,6.63
2019-02-27T14:30:52.520Z,6.60
2019-02-27T14:33:20.783Z,6.90
2019-02-27T14:35:48.936Z,6.50
2019-02-27T14:38:16.835Z,6.33
2019-02-27T14:40:44.802Z,7.20
2019-02-27T14:43:13.047Z,6.60
2019-02-27T14:45:41.131Z,6.93
2019-02-27T14:48:10.020Z,7.20
2019-02-27T14:50:38.075Z,7.50
2019-02-27T14:53:06.073Z,6.37
2019-02-27T14:55:36.155Z,6.70
2019-02-27T14:58:03.899Z,7.23
2019-02-27T15:00:32.140Z,6.10
2019-02-27T15:03:01.219Z,6.40
2019-02-27T15:05:29.296Z,6.20
2019-02-27T15:07:57.373Z,6.37
2019-02-27T15:10:25.780Z,6.80
2019-02-27T15:12:55.513Z,6.30
2019-02-27T15:15:25.876Z,6.03
2019-02-27T15:17:54.274Z,6.27
2019-02-27T15:20:24.401Z,5.37
2019-02-27T15:22:52.810Z,6.33
2019-02-27T15:25:21.669Z,6.40
2019-02-27T15:27:49.519Z,5.97
2019-02-27T15:30:19.464Z,6.30
2019-02-27T15:32:47.497Z,6.13
2019-02-27T15:35:15.627Z,5.77
2019-02-27T15:37:43.749Z,6.23
2019-02-27T15:40:13.316Z,6.30
2019-02-27T15:42:42.719Z,5.53
2019-02-27T15:45:11.765Z,6.87
2019-02-27T15:47:39.754Z,5.60
2019-02-27T15:50:08.722Z,5.63
2019-02-27T15:52:38.136Z,5.17
2019-02-27T15:55:06.836Z,4.90
2019-02-27T15:57:35.195Z,5.20
2019-02-27T16:00:03.427Z,5.23
2019-02-27T16:02:34.004Z,4.77
2019-02-27T16:05:03.371Z,5.37
2019-02-27T16:07:31.334Z,6.17
2019-02-27T16:09:59.086Z,5.13
2019-02-27T16:12:26.985Z,4.73
2019-02-27T16:14:54.885Z,4.50
2019-02-27T16:17:22.909Z,5.23
2019-02-27T16:19:50.706Z,5.40
2019-02-27T16:22:18.571Z,5.30
2019-02-27T16:24:46.752Z,4.53
2019-02-27T16:27:14.636Z,5.23
2019-02-27T16:29:42.825Z,5.03
2019-02-27T16:32:13.238Z,5.60
2019-02-27T16:34:40.839Z,6.00
2019-02-27T16:37:08.838Z,5.80
2019-02-27T16:39:41.237Z,7.10
2019-02-27T16:42:06.533Z,7.43
2019-02-27T16:44:34.561Z,6.97
2019-02-27T16:47:03.598Z,6.10
2019-02-27T16:49:31.976Z,5.43
2019-02-27T16:52:00.290Z,5.50
2019-02-27T16:54:28.542Z,5.30
2019-02-27T16:56:58.144Z,6.13
2019-02-27T16:59:26.359Z,6.00
2019-02-27T17:01:54.398Z,5.93
2019-02-27T17:04:22.546Z,11.47
2019-02-27T17:06:52.295Z,13.70
2019-02-27T17:09:20.511Z,17.33
2019-02-27T17:11:48.674Z,19.77
2019-02-27T17:14:16.758Z,22.90
2019-02-27T17:16:45.515Z,28.10
2019-02-27T17:19:14.032Z,30.60
2019-02-27T17:21:41.906Z,28.03
2019-02-27T17:24:10.300Z,26.17
2019-02-27T17:26:39.041Z,26.37
2019-02-27T17:29:08.029Z,24.70
2019-02-27T17:31:36.256Z,29.80
2019-02-27T17:34:04.575Z,24.40
2019-02-27T17:36:32.844Z,18.40
2019-02-27T17:39:00.879Z,18.03
2019-02-27T17:41:28.758Z,13.67
2019-02-27T17:43:57.058Z,10.43
2019-02-27T17:46:25.445Z,9.57
2019-02-27T17:48:53.630Z,10.67
2019-02-27T17:51:21.657Z,10.70
2019-02-27T17:53:49.865Z,11.40
2019-02-27T17:56:17.823Z,9.63
2019-02-27T17:58:46.830Z,10.40
2019-02-27T18:01:17.942Z,12.40
2019-02-27T18:03:46.133Z,12.40
2019-02-27T18:06:15.131Z,11.47
2019-02-27T18:08:43.264Z,11.60
2019-02-27T18:11:12.326Z,12.00
2019-02-27T18:13:41.011Z,11.00
2019-02-27T18:16:08.933Z,11.43
2019-02-27T18:18:37.065Z,10.97
2019-02-27T18:21:04.975Z,12.57
2019-02-27T18:23:32.804Z,12.33
2019-02-27T18:26:00.832Z,10.00
2019-02-27T18:28:32.665Z,10.73
2019-02-27T18:30:59.000Z,11.50
2019-02-27T18:33:27.033Z,10.17
2019-02-27T18:35:55.050Z,9.47
2019-02-27T18:38:27.595Z,9.93
2019-02-27T18:40:53.548Z,9.43
2019-02-27T18:43:21.676Z,8.90
2019-02-27T18:45:50.833Z,8.57
2019-02-27T18:48:19.940Z,9.27
2019-02-27T18:50:48.108Z,10.17
2019-02-27T18:53:16.091Z,10.10
2019-02-27T18:55:44.210Z,10.30
2019-02-27T18:58:12.799Z,10.10
2019-02-27T19:00:41.023Z,10.47
2019-02-27T19:03:08.914Z,10.87
2019-02-27T19:05:38.149Z,10.83
2019-02-27T19:08:07.126Z,12.20
2019-02-27T19:10:34.944Z,13.77
2019-02-27T19:13:03.200Z,13.63
2019-02-27T19:15:31.441Z,12.23
2019-02-27T19:17:59.922Z,12.80
2019-02-27T19:20:29.102Z,12.70
2019-02-27T19:22:57.330Z,12.57
2019-02-27T19:25:25.972Z,12.17
2019-02-27T19:27:54.303Z,11.13
2019-02-27T19:30:22.403Z,11.73
2019-02-27T19:32:50.400Z,11.87
2019-02-27T19:35:22.369Z,12.90
2019-02-27T19:37:50.610Z,12.93
2019-02-27T19:40:19.084Z,14.60
2019-02-27T19:42:48.898Z,16.53
2019-02-27T19:45:18.781Z,19.00
2019-02-27T19:47:49.683Z,19.47
2019-02-27T19:50:18.644Z,19.97
2019-02-27T19:52:46.630Z,21.37
2019-02-27T19:55:14.855Z,19.97
2019-02-27T19:57:44.428Z,18.77
2019-02-27T20:00:14.675Z,19.10
2019-02-27T20:02:42.749Z,20.20
2019-02-27T20:05:11.065Z,19.47
2019-02-27T20:07:39.104Z,18.47
2019-02-27T20:10:09.390Z,19.10
2019-02-27T20:12:37.582Z,20.20
2019-02-27T20:15:08.294Z,20.43
2019-02-27T20:17:37.671Z,20.87
2019-02-27T20:20:06.121Z,20.20
2019-02-27T20:22:33.983Z,18.23
2019-02-27T20:25:01.985Z,18.23
2019-02-27T20:27:32.099Z,17.90
2019-02-27T20:30:00.570Z,17.90
2019-02-27T20:32:29.256Z,16.23
2019-02-27T20:34:57.446Z,16.30
2019-02-27T20:37:25.607Z,15.47
2019-02-27T20:39:58.380Z,14.77
2019-02-27T20:42:23.829Z,15.13
2019-02-27T20:44:52.735Z,14.33
2019-02-27T20:47:21.870Z,13.53
2019-02-27T20:49:50.747Z,16.27
2019-02-27T20:52:19.059Z,14.30
2019-02-27T20:54:47.177Z,14.73
2019-02-27T20:57:15.391Z,15.53
2019-02-27T20:59:43.527Z,16.07
2019-02-27T21:02:11.737Z,15.30
2019-02-27T21:04:40.502Z,15.00
2019-02-27T21:07:08.756Z,13.77
2019-02-27T21:09:37.109Z,14.17
2019-02-27T21:12:07.257Z,14.80
2019-02-27T21:14:35.203Z,14.90
2019-02-27T21:17:03.594Z,13.90
2019-02-27T21:19:33.838Z,13.70
2019-02-27T21:22:01.926Z,14.40
2019-02-27T21:24:30.116Z,14.40
2019-02-27T21:26:58.320Z,14.20
2019-02-27T21:29:26.712Z,13.73
2019-02-27T21:31:54.987Z,13.47
2019-02-27T21:34:23.148Z,15.33
2019-02-27T21:36:51.310Z,14.07
2019-02-27T21:39:22.472Z,13.80
2019-02-27T21:41:49.847Z,14.70
2019-02-27T21:44:25.525Z,13.53
2019-02-27T21:46:48.422Z,12.30
2019-02-27T21:49:17.031Z,12.27
2019-02-27T21:51:48.096Z,12.73
2019-02-27T21:54:15.505Z,12.57
2019-02-27T21:56:43.697Z,12.63
2019-02-27T21:59:11.948Z,13.33
2019-02-27T22:01:40.458Z,12.53
2019-02-27T22:04:09.751Z,11.97
2019-02-27T22:06:40.006Z,12.10
2019-02-27T22:09:10.145Z,12.13
2019-02-27T22:11:38.537Z,11.27
2019-02-27T22:14:06.904Z,11.47
2019-02-27T22:16:35.858Z,11.57
2019-02-27T22:19:04.259Z,12.00
2019-02-27T22:21:34.214Z,11.77
2019-02-27T22:24:02.851Z,11.83
2019-02-27T22:26:34.153Z,11.47
2019-02-27T22:29:01.911Z,11.80
2019-02-27T22:31:30.509Z,10.93
2019-02-27T22:33:58.933Z,10.67
2019-02-27T22:36:27.424Z,10.50
2019-02-27T22:38:59.845Z,10.57
2019-02-27T22:41:25.924Z,11.40
2019-02-27T22:43:55.738Z,11.27
2019-02-27T22:46:24.124Z,10.70
2019-02-27T22:48:52.366Z,11.20
2019-02-27T22:51:20.638Z,10.73
2019-02-27T22:53:48.871Z,10.97
2019-02-27T22:56:17.225Z,10.13
2019-02-27T22:58:45.639Z,10.53
2019-02-27T23:01:28.814Z,11.07
2019-02-27T23:04:06.222Z,10.70
2019-02-27T23:06:34.467Z,10.43
2019-02-27T23:09:04.424Z,10.60
2019-02-27T23:11:34.180Z,10.97
2019-02-27T23:14:03.350Z,10.93
2019-02-27T23:16:31.365Z,11.40
2019-02-27T23:19:03.005Z,10.90
2019-02-27T23:21:32.058Z,10.33
2019-02-27T23:24:00.024Z,10.63
2019-02-27T23:26:27.994Z,10.70
2019-02-27T23:28:55.868Z,10.07
2019-02-27T23:31:23.702Z,9.87
2019-02-27T23:33:51.553Z,10.10
2019-02-27T23:36:22.144Z,10.20
2019-02-27T23:38:49.726Z,10.97
2019-02-27T23:41:22.802Z,10.10
2019-02-27T23:43:49.471Z,10.80
2019-02-27T23:46:18.629Z,10.13
2019-02-27T23:48:47.242Z,10.97
2019-02-27T23:51:16.749Z,10.13
2019-02-27T23:53:44.916Z,10.60
2019-02-27T23:56:12.892Z,10.80
2019-02-27T23:58:41.006Z,10.10
